Terminal Aerodrome Forecast
Issued by NWS Sterling, VA

Current Version | Previous Version | Text Only | Print | Product List | Glossary Off
Versions: 1 2 3 4 5 6 7 8 9 10 11 12 13 14 15 16 17 18 19 20 21 22 23 24 25

670
FTUS41 KLWX 050316 AAA
TAFIAD
TAF AMD
KIAD 050316Z 0503/0606 16005KT P6SM -RA OVC040
     FM050600 17005KT 4SM -RA BR OVC008
     FM050900 19005KT 5SM BR OVC004
     FM051500 28007KT P6SM BKN040
     FM051800 32011KT P6SM SCT040
     FM052300 34006KT P6SM SCT250=

USA.gov is the U.S. government's official web portal to all federal, state and local government web resources and services.